Pilotboat Haaja — LG2028 — position and weather

sailwx.info

Track history (hours):
 
Tides and Currents Weather Stations Pressure Air Temp Water Temp Dewpoint Dewpoint Depression Visibility Wind Speed Wind Dir Waves Ship Positions

Pilotboat Haaja

Last reported at 2018-Apr-27 02:30 UTC. Time now 2018-Apr-27 02:50 UTC.
Position N 70°40' E 023°41'.

Length 15 m; draft 2.4 m.

Type: Pilot. MMSI: 257092500.

Date/timePositionNaut miles runAvg speedWind from/ knotsBaromVisibWave heightAir tempDewpointWater temp
2018-Apr-27 02:30N 70°40' E 023°41'0 0.0
2018-Apr-27 02:00N 70°40' E 023°41'0 0.0
2018-Apr-27 01:30N 70°40' E 023°41'0 0.0
2018-Apr-27 01:00N 70°40' E 023°41'0 0.0
2018-Apr-27 00:30N 70°40' E 023°41'0 0.0
2018-Apr-27 00:00N 70°40' E 023°41'0 0.0
2018-Apr-26 23:30N 70°40' E 023°41'0 0.0
2018-Apr-26 23:00N 70°40' E 023°41'0 0.0
2018-Apr-26 22:30N 70°40' E 023°41'0 0.0
2018-Apr-26 22:00N 70°40' E 023°41'0 0.0
2018-Apr-26 21:30N 70°40' E 023°41'0 0.0
2018-Apr-26 21:00N 70°40' E 023°41'0 0.0
2018-Apr-26 20:30N 70°40' E 023°41'3 4.4
2018-Apr-26 19:51N 70°42' E 023°34'3 8.5
2018-Apr-26 19:30N 70°40' E 023°41'0 0.0
2018-Apr-26 19:00N 70°40' E 023°41'0 0.0
2018-Apr-26 18:30N 70°40' E 023°41'0 0.0
2018-Apr-26 18:00N 70°40' E 023°41'0 0.0
2018-Apr-26 17:29N 70°40' E 023°41'0 0.0
2018-Apr-26 17:00N 70°40' E 023°41'0 0.0
2018-Apr-26 16:30N 70°40' E 023°41'0 0.0
2018-Apr-26 16:00N 70°40' E 023°41'0 0.0
2018-Apr-26 15:30N 70°40' E 023°41'0 0.0
2018-Apr-26 15:00N 70°40' E 023°41'0 0.0
2018-Apr-26 14:30N 70°40' E 023°41'0 0.0
2018-Apr-26 14:00N 70°40' E 023°41'0 0.0
2018-Apr-26 13:29N 70°40' E 023°41'0 0.0
2018-Apr-26 12:57N 70°40' E 023°41'0 0.0
2018-Apr-26 12:30N 70°40' E 023°41'0 0.0
2018-Apr-26 12:00N 70°40' E 023°41'0 0.0
2018-Apr-26 11:30N 70°40' E 023°41'0 0.0
2018-Apr-26 10:58N 70°40' E 023°41'0 0.0
2018-Apr-26 10:30N 70°40' E 023°41'5 9.7
2018-Apr-26 10:00N 70°41' E 023°26'510.0
2018-Apr-26 09:30N 70°40' E 023°41'0 0.3
2018-Apr-26 09:00N 70°40' E 023°41'0 0.0
2018-Apr-26 08:30N 70°40' E 023°41'0 0.0
2018-Apr-26 07:59N 70°40' E 023°41'7 6.1
2018-Apr-26 06:46N 70°46' E 023°28'518.1
2018-Apr-26 06:28N 70°41' E 023°35'2 4.9
2018-Apr-26 06:01N 70°40' E 023°41'0 0.0
2018-Apr-26 05:31N 70°40' E 023°41'0 0.0
2018-Apr-26 04:57N 70°40' E 023°41'0 0.0
2018-Apr-26 04:31N 70°40' E 023°41'0 0.0
2018-Apr-26 04:01N 70°40' E 023°41'0 0.0
2018-Apr-26 03:30N 70°40' E 023°41'0 0.0
2018-Apr-26 03:00N 70°40' E 023°41'0 0.0
2018-Apr-26 02:29N 70°40' E 023°41'0 0.0
2018-Apr-26 01:59N 70°40' E 023°41'0 0.0
2018-Apr-26 01:31N 70°40' E 023°41'0 0.0
2018-Apr-26 01:00N 70°40' E 023°41'0 0.0
2018-Apr-26 00:22N 70°40' E 023°41'0 0.0
2018-Apr-26 00:01N 70°40' E 023°41'0 0.0
2018-Apr-25 23:31N 70°40' E 023°41'0 0.0
2018-Apr-25 22:57N 70°40' E 023°41'0 0.0
2018-Apr-25 22:30N 70°40' E 023°41'0 0.0
2018-Apr-25 22:00N 70°40' E 023°41'0 0.0
2018-Apr-25 21:30N 70°40' E 023°41'0 0.0
2018-Apr-25 21:01N 70°40' E 023°41'0 0.0
2018-Apr-25 20:30N 70°40' E 023°41'0 0.0
2018-Apr-25 20:01N 70°40' E 023°41'0 0.0
2018-Apr-25 19:31N 70°40' E 023°41'0 0.0
2018-Apr-25 19:01N 70°40' E 023°41'0 0.0
2018-Apr-25 18:31N 70°40' E 023°41'0 0.0
2018-Apr-25 18:01N 70°40' E 023°41'0 0.0
2018-Apr-25 17:30N 70°40' E 023°41'0 0.0
2018-Apr-25 17:00N 70°40' E 023°41'610.5
2018-Apr-25 16:28N 70°41' E 023°24'4 9.8
2018-Apr-25 16:01N 70°40' E 023°37'1 2.2
2018-Apr-25 15:30N 70°40' E 023°41'0 0.0
2018-Apr-25 14:59N 70°40' E 023°41'0 0.0
2018-Apr-25 14:30N 70°40' E 023°41'0 0.0
2018-Apr-25 14:00N 70°40' E 023°41'0 0.0
2018-Apr-25 13:30N 70°40' E 023°41'0 0.0
2018-Apr-25 12:59N 70°40' E 023°41'0 0.0
2018-Apr-25 12:28N 70°40' E 023°41'0 0.0
2018-Apr-25 11:58N 70°40' E 023°41'0 0.0
2018-Apr-25 11:30N 70°40' E 023°41'0 0.0
2018-Apr-25 11:00N 70°40' E 023°41'0 0.0
2018-Apr-25 10:30N 70°40' E 023°41'0 0.0
2018-Apr-25 10:00N 70°40' E 023°41'0 0.0
2018-Apr-25 09:29N 70°40' E 023°41'0 0.0
2018-Apr-25 09:00N 70°40' E 023°41'0 0.0
2018-Apr-25 08:30N 70°40' E 023°41'3 6.1
2018-Apr-25 07:58N 70°40' E 023°31'3 7.2
2018-Apr-25 07:30N 70°40' E 023°41'0 0.0
2018-Apr-25 07:00N 70°40' E 023°41'0 0.0
2018-Apr-25 06:30N 70°40' E 023°41'0 0.0
2018-Apr-25 05:59N 70°40' E 023°41'0 0.0
2018-Apr-25 05:29N 70°40' E 023°41'0 0.0
2018-Apr-25 04:59N 70°40' E 023°41'0 0.0
2018-Apr-25 04:30N 70°40' E 023°41'0 0.0
2018-Apr-25 04:00N 70°40' E 023°41'0 0.0
2018-Apr-25 03:29N 70°40' E 023°41'0 0.0
2018-Apr-25 03:00N 70°40' E 023°41'0 0.0
2018-Apr-25 02:30N 70°40' E 023°41'0 0.0
2018-Apr-25 02:00N 70°40' E 023°41'0 0.0
2018-Apr-25 01:30N 70°40' E 023°41'0 0.0
2018-Apr-25 01:00N 70°40' E 023°41'0 0.0
2018-Apr-25 00:30N 70°40' E 023°41'0 0.0
2018-Apr-25 00:00N 70°40' E 023°41'0 0.0
2018-Apr-24 23:30N 70°40' E 023°41'0 0.0
2018-Apr-24 23:00N 70°40' E 023°41'0 0.0
2018-Apr-24 22:30N 70°40' E 023°41'0 0.0
2018-Apr-24 22:00N 70°40' E 023°41'0 0.0
2018-Apr-24 21:30N 70°40' E 023°41'0 0.0
2018-Apr-24 21:00N 70°40' E 023°41'0 0.0
2018-Apr-24 20:30N 70°40' E 023°41'0 0.0
2018-Apr-24 20:00N 70°40' E 023°41'0 0.0
2018-Apr-24 19:28N 70°40' E 023°41'0 0.0
2018-Apr-24 19:00N 70°40' E 023°41'0 0.0
2018-Apr-24 18:30N 70°40' E 023°41'0 0.0
2018-Apr-24 18:00N 70°40' E 023°41'0 0.0
2018-Apr-24 17:29N 70°40' E 023°41'0 0.0
2018-Apr-24 17:00N 70°40' E 023°41'0 0.0
2018-Apr-24 16:30N 70°40' E 023°41'0 0.0
2018-Apr-24 15:59N 70°40' E 023°41'0 0.0
2018-Apr-24 15:30N 70°40' E 023°41'0 0.0
2018-Apr-24 15:00N 70°40' E 023°41'0 0.0
2018-Apr-24 14:29N 70°40' E 023°41'2 3.8
2018-Apr-24 13:58N 70°40' E 023°35'1 2.9
2018-Apr-24 13:30N 70°40' E 023°39'3 3.0
2018-Apr-24 12:32N 70°42' E 023°34'120.7
2018-Apr-24 12:29N 70°41' E 023°34'2 5.0
2018-Apr-24 12:00N 70°40' E 023°41'0 0.0
2018-Apr-24 11:30N 70°40' E 023°41'0 0.0
2018-Apr-24 11:00N 70°40' E 023°41'0 0.0
2018-Apr-24 10:30N 70°40' E 023°41'0 0.0
2018-Apr-24 10:01N 70°40' E 023°41'0 0.0
2018-Apr-24 09:31N 70°40' E 023°41'0 0.0
2018-Apr-24 09:01N 70°40' E 023°41'0 0.0
2018-Apr-24 08:30N 70°40' E 023°41'0 0.0
2018-Apr-24 07:59N 70°40' E 023°41'0 0.0
2018-Apr-24 07:30N 70°40' E 023°41'1 1.5
2018-Apr-24 07:00N 70°40' E 023°39'5 7.7
2018-Apr-24 06:24N 70°41' E 023°25'513.0
2018-Apr-24 06:00N 70°40' E 023°41'0 0.0
2018-Apr-24 05:30N 70°40' E 023°41'0 0.0
2018-Apr-24 05:00N 70°40' E 023°41'0 0.0
2018-Apr-24 04:30N 70°40' E 023°41'0 0.0
2018-Apr-24 04:00N 70°40' E 023°41'0 0.0
2018-Apr-24 03:30N 70°40' E 023°41'0 0.0
2018-Apr-24 02:58N 70°40' E 023°41'0 0.0
2018-Apr-24 02:30N 70°40' E 023°41'0 0.0
2018-Apr-24 02:00N 70°40' E 023°41'0 0.0
2018-Apr-24 01:30N 70°40' E 023°41'0 0.0
2018-Apr-24 01:00N 70°40' E 023°41'0 0.0
2018-Apr-24 00:30N 70°40' E 023°41'0 0.0
2018-Apr-24 00:00N 70°40' E 023°41'0 0.0
2018-Apr-23 23:29N 70°40' E 023°41'4 9.1
2018-Apr-23 23:00N 70°44' E 023°33'4 8.8
2018-Apr-23 22:30N 70°40' E 023°41'0 0.0
2018-Apr-23 22:00N 70°40' E 023°41'0 0.0
2018-Apr-23 21:30N 70°40' E 023°41'0 0.0
2018-Apr-23 21:00N 70°40' E 023°41'0 0.0
2018-Apr-23 20:30N 70°40' E 023°41'0 0.0
2018-Apr-23 19:58N 70°40' E 023°41'0 0.0
2018-Apr-23 19:30N 70°40' E 023°41'0 0.0
2018-Apr-23 19:00N 70°40' E 023°41'0 0.0
2018-Apr-23 18:30N 70°40' E 023°41'0 0.0
2018-Apr-23 18:00N 70°40' E 023°41'0 0.0
2018-Apr-23 17:30N 70°40' E 023°41'0 0.0
2018-Apr-23 17:00N 70°40' E 023°41'0 0.0
2018-Apr-23 16:30N 70°40' E 023°41'0 0.0
2018-Apr-23 15:59N 70°40' E 023°41'0 0.0
2018-Apr-23 15:29N 70°40' E 023°41'0 0.0
2018-Apr-23 15:00N 70°40' E 023°41'0 0.0
2018-Apr-23 14:30N 70°40' E 023°41'0 0.0
2018-Apr-23 14:00N 70°40' E 023°41'0 0.0
2018-Apr-23 13:30N 70°40' E 023°41'0 0.0
2018-Apr-23 13:00N 70°40' E 023°41'0 0.0
2018-Apr-23 12:30N 70°40' E 023°41'0 0.0
2018-Apr-23 12:00N 70°40' E 023°41'0 0.0
2018-Apr-23 11:29N 70°40' E 023°41'0 0.0
2018-Apr-23 11:00N 70°40' E 023°41'0 0.0
2018-Apr-23 10:29N 70°40' E 023°41'0 0.0
2018-Apr-23 10:00N 70°40' E 023°41'0 0.0
2018-Apr-23 09:29N 70°40' E 023°41'0 0.0
2018-Apr-23 09:00N 70°40' E 023°41'0 0.0
2018-Apr-23 08:29N 70°40' E 023°41'0 0.7
2018-Apr-23 07:59N 70°40' E 023°40'0 0.0
2018-Apr-23 07:30N 70°40' E 023°40'3 3.6
2018-Apr-23 06:48N 70°42' E 023°35'3 9.1
2018-Apr-23 06:30N 70°40' E 023°41'0 0.0
2018-Apr-23 06:00N 70°40' E 023°41'0 0.0
2018-Apr-23 05:29N 70°40' E 023°41'0 0.0
2018-Apr-23 04:59N 70°40' E 023°41'3 5.2
2018-Apr-23 04:30N 70°39' E 023°34'3 3.3
2018-Apr-23 03:32N 70°42' E 023°34'120.9
2018-Apr-23 03:30N 70°41' E 023°35'0 0.8
2018-Apr-23 02:57N 70°41' E 023°35'1 1.9
2018-Apr-23 02:30N 70°40' E 023°37'1 2.4
2018-Apr-23 02:00N 70°40' E 023°41'0 0.0
2018-Apr-23 01:30N 70°40' E 023°41'0 0.0
2018-Apr-23 01:00N 70°40' E 023°41'0 0.0
2018-Apr-23 00:30N 70°40' E 023°41'0 0.0
2018-Apr-23 00:00N 70°40' E 023°41'0 0.0
2018-Apr-22 23:30N 70°40' E 023°41'0 0.0
2018-Apr-22 23:00N 70°40' E 023°41'0 0.0
2018-Apr-22 22:30N 70°40' E 023°41'0 0.0
2018-Apr-22 22:00N 70°40' E 023°41'0 0.0
2018-Apr-22 21:30N 70°40' E 023°41'0 0.0
2018-Apr-22 21:00N 70°40' E 023°41'0 0.0
2018-Apr-22 20:30N 70°40' E 023°41'0 0.0
2018-Apr-22 20:00N 70°40' E 023°41'0 0.0
2018-Apr-22 19:30N 70°40' E 023°41'0 0.0
2018-Apr-22 18:58N 70°40' E 023°41'0 0.0
2018-Apr-22 18:30N 70°40' E 023°41'0 0.0
2018-Apr-22 18:00N 70°40' E 023°41'0 0.0
2018-Apr-22 17:30N 70°40' E 023°41'0 0.0
2018-Apr-22 17:00N 70°40' E 023°41'0 0.0
2018-Apr-22 16:30N 70°40' E 023°41'0 0.0
2018-Apr-22 15:59N 70°40' E 023°41'0 0.0
2018-Apr-22 15:30N 70°40' E 023°41'0 0.0
2018-Apr-22 15:00N 70°40' E 023°41'0 0.0
2018-Apr-22 14:30N 70°40' E 023°41'0 0.0
2018-Apr-22 13:59N 70°40' E 023°41'0 0.0
2018-Apr-22 13:29N 70°40' E 023°41'0 0.0
2018-Apr-22 13:00N 70°40' E 023°41'0 0.0
2018-Apr-22 12:29N 70°40' E 023°41'0 0.0
2018-Apr-22 12:00N 70°40' E 023°41'0 0.0
2018-Apr-22 11:30N 70°40' E 023°41'0 0.0
2018-Apr-22 11:00N 70°40' E 023°41'0 0.0
2018-Apr-22 10:29N 70°40' E 023°41'0 0.0
2018-Apr-22 09:59N 70°40' E 023°41'0 0.0
2018-Apr-22 09:30N 70°40' E 023°41'1 2.7
2018-Apr-22 09:01N 70°40' E 023°37'3 6.8
2018-Apr-22 08:30N 70°40' E 023°27'5 9.3
2018-Apr-22 08:00N 70°40' E 023°41'0 0.0
2018-Apr-22 07:30N 70°40' E 023°41'0 0.0
2018-Apr-22 07:00N 70°40' E 023°41'0 0.0
2018-Apr-22 06:30N 70°40' E 023°41'0 0.0
2018-Apr-22 05:59N 70°40' E 023°41'0 0.0
2018-Apr-22 05:28N 70°40' E 023°41'0 0.0
2018-Apr-22 04:59N 70°40' E 023°41'0 0.0
2018-Apr-22 04:30N 70°40' E 023°41'0 0.0
2018-Apr-22 04:00N 70°40' E 023°41'0 0.0
2018-Apr-22 03:29N 70°40' E 023°41'0 0.0
2018-Apr-22 03:00N 70°40' E 023°41'0 0.0
2018-Apr-22 02:30N 70°40' E 023°41'0 0.0
2018-Apr-22 02:00N 70°40' E 023°41'0 0.0
2018-Apr-22 01:30N 70°40' E 023°41'0 0.0
2018-Apr-22 01:00N 70°40' E 023°41'0 0.0
2018-Apr-22 00:30N 70°40' E 023°41'0 0.0
2018-Apr-22 00:00N 70°40' E 023°41'0 0.0
2018-Apr-21 23:30N 70°40' E 023°41'0 0.0
2018-Apr-21 23:00N 70°40' E 023°41'0 0.0
2018-Apr-21 22:30N 70°40' E 023°41'0 0.0
2018-Apr-21 22:00N 70°40' E 023°41'0 0.0
2018-Apr-21 21:30N 70°40' E 023°41'0 0.0
2018-Apr-21 21:00N 70°40' E 023°41'0 0.0
2018-Apr-21 20:30N 70°40' E 023°41'0 0.0
2018-Apr-21 20:00N 70°40' E 023°41'0 0.0
2018-Apr-21 19:30N 70°40' E 023°41'0 0.0
2018-Apr-21 18:57N 70°40' E 023°41'0 0.0
2018-Apr-21 18:30N 70°40' E 023°41'0 0.0
2018-Apr-21 18:00N 70°40' E 023°41'0 0.0
2018-Apr-21 17:30N 70°40' E 023°41'0 0.0
2018-Apr-21 17:00N 70°40' E 023°41'0 0.0
2018-Apr-21 16:30N 70°40' E 023°41'0 0.0
2018-Apr-21 16:00N 70°40' E 023°41'0 0.0
2018-Apr-21 15:30N 70°40' E 023°41'0 0.0
2018-Apr-21 15:00N 70°40' E 023°41'0 0.0
2018-Apr-21 14:30N 70°40' E 023°41'0 0.0
2018-Apr-21 14:00N 70°40' E 023°41'0 0.0
2018-Apr-21 13:30N 70°40' E 023°41'0 0.0
2018-Apr-21 13:00N 70°40' E 023°41'0 0.0
2018-Apr-21 12:30N 70°40' E 023°41'0 0.0
2018-Apr-21 12:00N 70°40' E 023°41'0 0.0
2018-Apr-21 11:30N 70°40' E 023°41'0 0.0
2018-Apr-21 11:00N 70°40' E 023°41'0 0.0
2018-Apr-21 10:30N 70°40' E 023°41'0 0.0
2018-Apr-21 10:00N 70°40' E 023°41'0 0.0
2018-Apr-21 09:30N 70°40' E 023°41'0 0.0
2018-Apr-21 09:00N 70°40' E 023°41'0 0.0
2018-Apr-21 08:30N 70°40' E 023°41'0 0.0
2018-Apr-21 08:00N 70°40' E 023°41'0 0.0
2018-Apr-21 07:30N 70°40' E 023°41'3 5.5
2018-Apr-21 06:58N 70°42' E 023°34'2 4.0
2018-Apr-21 06:30N 70°40' E 023°37'1 2.7
2018-Apr-21 06:00N 70°40' E 023°41'0 0.0
2018-Apr-21 05:30N 70°40' E 023°41'0 0.0
2018-Apr-21 05:00N 70°40' E 023°41'0 0.0
2018-Apr-21 04:30N 70°40' E 023°41'0 0.0
2018-Apr-21 04:00N 70°40' E 023°41'0 0.0
2018-Apr-21 03:30N 70°40' E 023°41'0 0.0
2018-Apr-21 03:00N 70°40' E 023°41'0 0.0
2018-Apr-21 02:30N 70°40' E 023°41'0 0.0
2018-Apr-21 02:00N 70°40' E 023°41'0 0.0
2018-Apr-21 01:30N 70°40' E 023°41'0 0.0
2018-Apr-21 01:00N 70°40' E 023°41'0 0.0
2018-Apr-21 00:30N 70°40' E 023°41'0 0.0
2018-Apr-21 00:00N 70°40' E 023°41'0 0.0
2018-Apr-20 23:30N 70°40' E 023°41'0 0.0
2018-Apr-20 23:00N 70°40' E 023°41'0 0.0
2018-Apr-20 22:30N 70°40' E 023°41'0 0.0
2018-Apr-20 22:00N 70°40' E 023°41'0 0.0
2018-Apr-20 21:30N 70°40' E 023°41'0 0.0
2018-Apr-20 21:00N 70°40' E 023°41'0 0.0
2018-Apr-20 20:30N 70°40' E 023°41'0 0.0
2018-Apr-20 20:00N 70°40' E 023°41'0 0.0
2018-Apr-20 19:30N 70°40' E 023°41'0 0.0
2018-Apr-20 19:00N 70°40' E 023°41'0 0.0
2018-Apr-20 18:30N 70°40' E 023°41'0 0.0
2018-Apr-20 17:59N 70°40' E 023°41'0 0.0
2018-Apr-20 17:29N 70°40' E 023°41'0 0.0
2018-Apr-20 17:00N 70°40' E 023°41'0 0.0
2018-Apr-20 16:30N 70°40' E 023°41'0 0.0
2018-Apr-20 16:00N 70°40' E 023°41'0 0.0
2018-Apr-20 15:30N 70°40' E 023°41'0 0.0
2018-Apr-20 14:59N 70°40' E 023°41'0 0.0
2018-Apr-20 14:30N 70°40' E 023°41'0 0.0
2018-Apr-20 14:00N 70°40' E 023°41'0 0.0
2018-Apr-20 13:30N 70°40' E 023°41'0 0.0
2018-Apr-20 13:00N 70°40' E 023°41'0 0.0
2018-Apr-20 12:29N 70°40' E 023°41'0 0.0
2018-Apr-20 11:58N 70°40' E 023°41'0 0.0
2018-Apr-20 11:30N 70°40' E 023°41'2 4.3
2018-Apr-20 10:59N 70°39' E 023°35'2 4.6
2018-Apr-20 10:30N 70°40' E 023°41'0 0.0
2018-Apr-20 09:59N 70°40' E 023°41'0 0.0
2018-Apr-20 09:30N 70°40' E 023°41'0 0.0
2018-Apr-20 09:00N 70°40' E 023°41'0 0.0
2018-Apr-20 08:30N 70°40' E 023°41'2 3.8
2018-Apr-20 08:00N 70°39' E 023°36'2 3.9
2018-Apr-20 07:30N 70°40' E 023°41'0 0.1
2018-Apr-20 07:00N 70°40' E 023°41'0 0.0
2018-Apr-20 06:30N 70°40' E 023°41'4 5.3
2018-Apr-20 05:48N 70°43' E 023°34'413.0
2018-Apr-20 05:31N 70°40' E 023°41'0 0.0
2018-Apr-20 05:00N 70°40' E 023°41'0 0.0
2018-Apr-20 04:31N 70°40' E 023°41'0 0.0
2018-Apr-20 04:00N 70°40' E 023°41'0 0.0
2018-Apr-20 03:31N 70°40' E 023°41'0 0.0
2018-Apr-20 03:01N 70°40' E 023°41'0 0.0
2018-Apr-20 02:30N 70°40' E 023°41'0 0.0
2018-Apr-20 02:00N 70°40' E 023°41'0 0.0
2018-Apr-20 01:31N 70°40' E 023°41'0 0.0
2018-Apr-20 01:01N 70°40' E 023°41'0 0.0
2018-Apr-20 00:31N 70°40' E 023°41'0 0.0
2018-Apr-20 00:01N 70°40' E 023°41'0 0.0
2018-Apr-19 23:31N 70°40' E 023°41'0 0.0
2018-Apr-19 23:00N 70°40' E 023°41'0 0.0
2018-Apr-19 22:31N 70°40' E 023°41'0 0.0
2018-Apr-19 22:01N 70°40' E 023°41'0 0.0
2018-Apr-19 21:30N 70°40' E 023°41'0 0.0
2018-Apr-19 21:00N 70°40' E 023°41'0 0.0
2018-Apr-19 20:30N 70°40' E 023°41'0 0.0
2018-Apr-19 20:00N 70°40' E 023°41'0 0.0
2018-Apr-19 19:30N 70°40' E 023°41'0 0.0
2018-Apr-19 19:01N 70°40' E 023°41'0 0.0
2018-Apr-19 18:30N 70°40' E 023°41'0 0.0
2018-Apr-19 17:55N 70°40' E 023°41'0 0.0
2018-Apr-19 17:30N 70°40' E 023°41'0 0.0
2018-Apr-19 17:01N 70°40' E 023°41'0 0.0
2018-Apr-19 16:31N 70°40' E 023°41'0 0.0
2018-Apr-19 16:00N 70°40' E 023°41'0 0.0
2018-Apr-19 15:31N 70°40' E 023°41'0 0.0
2018-Apr-19 15:01N 70°40' E 023°41'0 0.0
2018-Apr-19 14:29N 70°40' E 023°41'0 0.0
2018-Apr-19 13:57N 70°40' E 023°41'0 0.0
2018-Apr-19 13:28N 70°40' E 023°41'0 0.0
2018-Apr-19 13:01N 70°40' E 023°41'0 0.0
2018-Apr-19 12:30N 70°40' E 023°41'0 0.0
2018-Apr-19 12:00N 70°40' E 023°41'0 0.0
2018-Apr-19 11:31N 70°40' E 023°41'0 0.0
2018-Apr-19 10:58N 70°40' E 023°41'0 0.0
2018-Apr-19 10:30N 70°40' E 023°41'0 0.0
2018-Apr-19 09:59N 70°40' E 023°41'0 0.0
2018-Apr-19 09:24N 70°40' E 023°41'0 0.0
2018-Apr-19 09:00N 70°40' E 023°41'0 0.0
2018-Apr-19 08:31N 70°40' E 023°41'0 0.0
2018-Apr-19 08:00N 70°40' E 023°41'0 0.0
2018-Apr-19 07:31N 70°40' E 023°41'0 0.0
2018-Apr-19 07:00N 70°40' E 023°41'0 0.0
2018-Apr-19 06:30N 70°40' E 023°41'0 0.0
2018-Apr-19 06:00N 70°40' E 023°41'0 0.0
2018-Apr-19 05:29N 70°40' E 023°41'0 0.0
2018-Apr-19 05:00N 70°40' E 023°41'0 0.0
2018-Apr-19 04:31N 70°40' E 023°41'0 0.0
2018-Apr-19 04:01N 70°40' E 023°41'0 0.0
2018-Apr-19 03:30N 70°40' E 023°41'0 0.0
2018-Apr-19 03:00N 70°40' E 023°41'0 0.0
2018-Apr-19 02:30N 70°40' E 023°41'0 0.0
2018-Apr-19 02:01N 70°40' E 023°41'0 0.0
2018-Apr-19 01:30N 70°40' E 023°41'0 0.0
2018-Apr-19 01:01N 70°40' E 023°41'0 0.0
2018-Apr-19 00:31N 70°40' E 023°41'0 0.0
2018-Apr-19 00:01N 70°40' E 023°41'0 0.0
2018-Apr-18 23:30N 70°40' E 023°41'0 0.0
2018-Apr-18 23:00N 70°40' E 023°41'0 0.0
2018-Apr-18 22:31N 70°40' E 023°41'0 0.0
2018-Apr-18 22:01N 70°40' E 023°41'0 0.0
2018-Apr-18 21:31N 70°40' E 023°41'0 0.0
2018-Apr-18 21:00N 70°40' E 023°41'0 0.0
2018-Apr-18 20:31N 70°40' E 023°41'0 0.0
2018-Apr-18 20:01N 70°40' E 023°41'0 0.0
2018-Apr-18 19:30N 70°40' E 023°41'0 0.0
2018-Apr-18 19:01N 70°40' E 023°41'0 0.0
2018-Apr-18 18:30N 70°40' E 023°41'0 0.0
2018-Apr-18 18:00N 70°40' E 023°41'0 0.0
2018-Apr-18 17:31N 70°40' E 023°41'0 0.0
2018-Apr-18 17:00N 70°40' E 023°41'0 0.0
2018-Apr-18 16:30N 70°40' E 023°41'0 0.0
2018-Apr-18 16:01N 70°40' E 023°41'0 0.0
2018-Apr-18 15:30N 70°40' E 023°41'0 0.0
2018-Apr-18 13:46N 70°40' E 023°41'0 0.0
2018-Apr-18 13:30N 70°40' E 023°41'0 0.0
2018-Apr-18 12:59N 70°40' E 023°41'0 0.0
2018-Apr-18 12:30N 70°40' E 023°41'0 0.0
2018-Apr-18 12:01N 70°40' E 023°41'0 0.0
2018-Apr-18 11:31N 70°40' E 023°41'0 0.0
2018-Apr-18 10:59N 70°40' E 023°41'0 0.0
2018-Apr-18 10:29N 70°40' E 023°41'0 0.0
2018-Apr-18 09:59N 70°40' E 023°41'0 0.0
2018-Apr-18 09:29N 70°40' E 023°41'0 0.0
2018-Apr-18 09:00N 70°40' E 023°41'0 0.0
2018-Apr-18 08:31N 70°40' E 023°41'0 0.0
2018-Apr-18 08:01N 70°40' E 023°41'0 0.0
2018-Apr-18 07:29N 70°40' E 023°41'0 0.0
2018-Apr-18 07:01N 70°40' E 023°41'0 0.0
2018-Apr-18 06:30N 70°40' E 023°41'0 0.0
2018-Apr-18 06:00N 70°40' E 023°41'0 0.0
2018-Apr-18 05:30N 70°40' E 023°41'0 0.0
2018-Apr-18 04:58N 70°40' E 023°41'0 0.0
2018-Apr-18 04:30N 70°40' E 023°41'0 0.0
2018-Apr-18 04:01N 70°40' E 023°41'0 0.0
2018-Apr-18 03:30N 70°40' E 023°41'0 0.0
2018-Apr-18 03:00N 70°40' E 023°41'0 0.0
2018-Apr-18 02:31N 70°40' E 023°41'0 0.0
2018-Apr-18 02:00N 70°40' E 023°41'0 0.0
2018-Apr-18 01:31N 70°40' E 023°41'0 0.0
2018-Apr-18 01:01N 70°40' E 023°41'0 0.0
2018-Apr-18 00:31N 70°40' E 023°41'0 0.0
2018-Apr-18 00:01N 70°40' E 023°41'0 0.0
2018-Apr-17 23:30N 70°40' E 023°41'0 0.0
2018-Apr-17 23:01N 70°40' E 023°41'0 0.0
2018-Apr-17 22:31N 70°40' E 023°41'0 0.0
2018-Apr-17 22:01N 70°40' E 023°41'0 0.0
2018-Apr-17 21:30N 70°40' E 023°41'0 0.0
2018-Apr-17 21:01N 70°40' E 023°41'0 0.0
2018-Apr-17 20:31N 70°40' E 023°41'0 0.0
2018-Apr-17 20:01N 70°40' E 023°41'0 0.0
2018-Apr-17 19:30N 70°40' E 023°41'0 0.0
2018-Apr-17 19:01N 70°40' E 023°41'0 0.0
2018-Apr-17 18:30N 70°40' E 023°41'0 0.0
2018-Apr-17 18:00N 70°40' E 023°41'0 0.0
2018-Apr-17 17:31N 70°40' E 023°41'0 0.0
2018-Apr-17 17:00N 70°40' E 023°41'0 0.0
2018-Apr-17 16:30N 70°40' E 023°41'0 0.0
2018-Apr-17 15:59N 70°40' E 023°41'0 0.0
2018-Apr-17 15:31N 70°40' E 023°41'0 0.0
2018-Apr-17 15:01N 70°40' E 023°41'0 0.0
2018-Apr-17 14:30N 70°40' E 023°41'0 0.0
2018-Apr-17 13:58N 70°40' E 023°41'0 0.0
2018-Apr-17 13:31N 70°40' E 023°41'0 0.0
2018-Apr-17 13:00N 70°40' E 023°41'0 0.0
2018-Apr-17 12:29N 70°40' E 023°41'  
Track history (hours):
 
Tides and Currents Weather Stations Pressure Air Temp Water Temp Dewpoint Dewpoint Depression Visibility Wind Speed Wind Dir Waves Ship Positions

Pilotboat Haaja

Last reported at 2018-Apr-27 02:30 UTC. Time now 2018-Apr-27 02:50 UTC.
Position N 70°40' E 023°41'.

Length 15 m; draft 2.4 m.

Type: Pilot. MMSI: 257092500.

Date/timePositionNaut miles runAvg speedWind from/ knotsBaromVisibWave heightAir tempDewpointWater temp
2018-Apr-27 02:30N 70°40' E 023°41'0 0.0
2018-Apr-27 02:00N 70°40' E 023°41'0 0.0
2018-Apr-27 01:30N 70°40' E 023°41'0 0.0
2018-Apr-27 01:00N 70°40' E 023°41'0 0.0
2018-Apr-27 00:30N 70°40' E 023°41'0 0.0
2018-Apr-27 00:00N 70°40' E 023°41'0 0.0
2018-Apr-26 23:30N 70°40' E 023°41'0 0.0
2018-Apr-26 23:00N 70°40' E 023°41'0 0.0
2018-Apr-26 22:30N 70°40' E 023°41'0 0.0
2018-Apr-26 22:00N 70°40' E 023°41'0 0.0
2018-Apr-26 21:30N 70°40' E 023°41'0 0.0
2018-Apr-26 21:00N 70°40' E 023°41'0 0.0
2018-Apr-26 20:30N 70°40' E 023°41'3 4.4
2018-Apr-26 19:51N 70°42' E 023°34'3 8.5
2018-Apr-26 19:30N 70°40' E 023°41'0 0.0
2018-Apr-26 19:00N 70°40' E 023°41'0 0.0
2018-Apr-26 18:30N 70°40' E 023°41'0 0.0
2018-Apr-26 18:00N 70°40' E 023°41'0 0.0
2018-Apr-26 17:29N 70°40' E 023°41'0 0.0
2018-Apr-26 17:00N 70°40' E 023°41'0 0.0
2018-Apr-26 16:30N 70°40' E 023°41'0 0.0
2018-Apr-26 16:00N 70°40' E 023°41'0 0.0
2018-Apr-26 15:30N 70°40' E 023°41'0 0.0
2018-Apr-26 15:00N 70°40' E 023°41'0 0.0
2018-Apr-26 14:30N 70°40' E 023°41'0 0.0
2018-Apr-26 14:00N 70°40' E 023°41'0 0.0
2018-Apr-26 13:29N 70°40' E 023°41'0 0.0
2018-Apr-26 12:57N 70°40' E 023°41'0 0.0
2018-Apr-26 12:30N 70°40' E 023°41'0 0.0
2018-Apr-26 12:00N 70°40' E 023°41'0 0.0
2018-Apr-26 11:30N 70°40' E 023°41'0 0.0
2018-Apr-26 10:58N 70°40' E 023°41'0 0.0
2018-Apr-26 10:30N 70°40' E 023°41'5 9.7
2018-Apr-26 10:00N 70°41' E 023°26'510.0
2018-Apr-26 09:30N 70°40' E 023°41'0 0.3
2018-Apr-26 09:00N 70°40' E 023°41'0 0.0
2018-Apr-26 08:30N 70°40' E 023°41'0 0.0
2018-Apr-26 07:59N 70°40' E 023°41'7 6.1
2018-Apr-26 06:46N 70°46' E 023°28'518.1
2018-Apr-26 06:28N 70°41' E 023°35'2 4.9
2018-Apr-26 06:01N 70°40' E 023°41'0 0.0
2018-Apr-26 05:31N 70°40' E 023°41'0 0.0
2018-Apr-26 04:57N 70°40' E 023°41'0 0.0
2018-Apr-26 04:31N 70°40' E 023°41'0 0.0
2018-Apr-26 04:01N 70°40' E 023°41'0 0.0
2018-Apr-26 03:30N 70°40' E 023°41'0 0.0
2018-Apr-26 03:00N 70°40' E 023°41'0 0.0
2018-Apr-26 02:29N 70°40' E 023°41'0 0.0
2018-Apr-26 01:59N 70°40' E 023°41'0 0.0
2018-Apr-26 01:31N 70°40' E 023°41'0 0.0
2018-Apr-26 01:00N 70°40' E 023°41'0 0.0
2018-Apr-26 00:22N 70°40' E 023°41'0 0.0
2018-Apr-26 00:01N 70°40' E 023°41'0 0.0
2018-Apr-25 23:31N 70°40' E 023°41'0 0.0
2018-Apr-25 22:57N 70°40' E 023°41'0 0.0
2018-Apr-25 22:30N 70°40' E 023°41'0 0.0
2018-Apr-25 22:00N 70°40' E 023°41'0 0.0
2018-Apr-25 21:30N 70°40' E 023°41'0 0.0
2018-Apr-25 21:01N 70°40' E 023°41'0 0.0
2018-Apr-25 20:30N 70°40' E 023°41'0 0.0
2018-Apr-25 20:01N 70°40' E 023°41'0 0.0
2018-Apr-25 19:31N 70°40' E 023°41'0 0.0
2018-Apr-25 19:01N 70°40' E 023°41'0 0.0
2018-Apr-25 18:31N 70°40' E 023°41'0 0.0
2018-Apr-25 18:01N 70°40' E 023°41'0 0.0
2018-Apr-25 17:30N 70°40' E 023°41'0 0.0
2018-Apr-25 17:00N 70°40' E 023°41'610.5
2018-Apr-25 16:28N 70°41' E 023°24'4 9.8
2018-Apr-25 16:01N 70°40' E 023°37'1 2.2
2018-Apr-25 15:30N 70°40' E 023°41'0 0.0
2018-Apr-25 14:59N 70°40' E 023°41'0 0.0
2018-Apr-25 14:30N 70°40' E 023°41'0 0.0
2018-Apr-25 14:00N 70°40' E 023°41'0 0.0
2018-Apr-25 13:30N 70°40' E 023°41'0 0.0
2018-Apr-25 12:59N 70°40' E 023°41'0 0.0
2018-Apr-25 12:28N 70°40' E 023°41'0 0.0
2018-Apr-25 11:58N 70°40' E 023°41'0 0.0
2018-Apr-25 11:30N 70°40' E 023°41'0 0.0
2018-Apr-25 11:00N 70°40' E 023°41'0 0.0
2018-Apr-25 10:30N 70°40' E 023°41'0 0.0
2018-Apr-25 10:00N 70°40' E 023°41'0 0.0
2018-Apr-25 09:29N 70°40' E 023°41'0 0.0
2018-Apr-25 09:00N 70°40' E 023°41'0 0.0
2018-Apr-25 08:30N 70°40' E 023°41'3 6.1
2018-Apr-25 07:58N 70°40' E 023°31'3 7.2
2018-Apr-25 07:30N 70°40' E 023°41'0 0.0
2018-Apr-25 07:00N 70°40' E 023°41'0 0.0
2018-Apr-25 06:30N 70°40' E 023°41'0 0.0
2018-Apr-25 05:59N 70°40' E 023°41'0 0.0
2018-Apr-25 05:29N 70°40' E 023°41'0 0.0
2018-Apr-25 04:59N 70°40' E 023°41'0 0.0
2018-Apr-25 04:30N 70°40' E 023°41'0 0.0
2018-Apr-25 04:00N 70°40' E 023°41'0 0.0
2018-Apr-25 03:29N 70°40' E 023°41'0 0.0
2018-Apr-25 03:00N 70°40' E 023°41'0 0.0
2018-Apr-25 02:30N 70°40' E 023°41'0 0.0
2018-Apr-25 02:00N 70°40' E 023°41'0 0.0
2018-Apr-25 01:30N 70°40' E 023°41'0 0.0
2018-Apr-25 01:00N 70°40' E 023°41'0 0.0
2018-Apr-25 00:30N 70°40' E 023°41'0 0.0
2018-Apr-25 00:00N 70°40' E 023°41'0 0.0
2018-Apr-24 23:30N 70°40' E 023°41'0 0.0
2018-Apr-24 23:00N 70°40' E 023°41'0 0.0
2018-Apr-24 22:30N 70°40' E 023°41'0 0.0
2018-Apr-24 22:00N 70°40' E 023°41'0 0.0
2018-Apr-24 21:30N 70°40' E 023°41'0 0.0
2018-Apr-24 21:00N 70°40' E 023°41'0 0.0
2018-Apr-24 20:30N 70°40' E 023°41'0 0.0
2018-Apr-24 20:00N 70°40' E 023°41'0 0.0
2018-Apr-24 19:28N 70°40' E 023°41'0 0.0
2018-Apr-24 19:00N 70°40' E 023°41'0 0.0
2018-Apr-24 18:30N 70°40' E 023°41'0 0.0
2018-Apr-24 18:00N 70°40' E 023°41'0 0.0
2018-Apr-24 17:29N 70°40' E 023°41'0 0.0
2018-Apr-24 17:00N 70°40' E 023°41'0 0.0
2018-Apr-24 16:30N 70°40' E 023°41'0 0.0
2018-Apr-24 15:59N 70°40' E 023°41'0 0.0
2018-Apr-24 15:30N 70°40' E 023°41'0 0.0
2018-Apr-24 15:00N 70°40' E 023°41'0 0.0
2018-Apr-24 14:29N 70°40' E 023°41'2 3.8
2018-Apr-24 13:58N 70°40' E 023°35'1 2.9
2018-Apr-24 13:30N 70°40' E 023°39'3 3.0
2018-Apr-24 12:32N 70°42' E 023°34'120.7
2018-Apr-24 12:29N 70°41' E 023°34'2 5.0
2018-Apr-24 12:00N 70°40' E 023°41'0 0.0
2018-Apr-24 11:30N 70°40' E 023°41'0 0.0
2018-Apr-24 11:00N 70°40' E 023°41'0 0.0
2018-Apr-24 10:30N 70°40' E 023°41'0 0.0
2018-Apr-24 10:01N 70°40' E 023°41'0 0.0
2018-Apr-24 09:31N 70°40' E 023°41'0 0.0
2018-Apr-24 09:01N 70°40' E 023°41'0 0.0
2018-Apr-24 08:30N 70°40' E 023°41'0 0.0
2018-Apr-24 07:59N 70°40' E 023°41'0 0.0
2018-Apr-24 07:30N 70°40' E 023°41'1 1.5
2018-Apr-24 07:00N 70°40' E 023°39'5 7.7
2018-Apr-24 06:24N 70°41' E 023°25'513.0
2018-Apr-24 06:00N 70°40' E 023°41'0 0.0
2018-Apr-24 05:30N 70°40' E 023°41'0 0.0
2018-Apr-24 05:00N 70°40' E 023°41'0 0.0
2018-Apr-24 04:30N 70°40' E 023°41'0 0.0
2018-Apr-24 04:00N 70°40' E 023°41'0 0.0
2018-Apr-24 03:30N 70°40' E 023°41'0 0.0
2018-Apr-24 02:58N 70°40' E 023°41'0 0.0
2018-Apr-24 02:30N 70°40' E 023°41'0 0.0
2018-Apr-24 02:00N 70°40' E 023°41'0 0.0
2018-Apr-24 01:30N 70°40' E 023°41'0 0.0
2018-Apr-24 01:00N 70°40' E 023°41'0 0.0
2018-Apr-24 00:30N 70°40' E 023°41'0 0.0
2018-Apr-24 00:00N 70°40' E 023°41'0 0.0
2018-Apr-23 23:29N 70°40' E 023°41'4 9.1
2018-Apr-23 23:00N 70°44' E 023°33'4 8.8
2018-Apr-23 22:30N 70°40' E 023°41'0 0.0
2018-Apr-23 22:00N 70°40' E 023°41'0 0.0
2018-Apr-23 21:30N 70°40' E 023°41'0 0.0
2018-Apr-23 21:00N 70°40' E 023°41'0 0.0
2018-Apr-23 20:30N 70°40' E 023°41'0 0.0
2018-Apr-23 19:58N 70°40' E 023°41'0 0.0
2018-Apr-23 19:30N 70°40' E 023°41'0 0.0
2018-Apr-23 19:00N 70°40' E 023°41'0 0.0
2018-Apr-23 18:30N 70°40' E 023°41'0 0.0
2018-Apr-23 18:00N 70°40' E 023°41'0 0.0
2018-Apr-23 17:30N 70°40' E 023°41'0 0.0
2018-Apr-23 17:00N 70°40' E 023°41'0 0.0
2018-Apr-23 16:30N 70°40' E 023°41'0 0.0
2018-Apr-23 15:59N 70°40' E 023°41'0 0.0
2018-Apr-23 15:29N 70°40' E 023°41'0 0.0
2018-Apr-23 15:00N 70°40' E 023°41'0 0.0
2018-Apr-23 14:30N 70°40' E 023°41'0 0.0
2018-Apr-23 14:00N 70°40' E 023°41'0 0.0
2018-Apr-23 13:30N 70°40' E 023°41'0 0.0
2018-Apr-23 13:00N 70°40' E 023°41'0 0.0
2018-Apr-23 12:30N 70°40' E 023°41'0 0.0
2018-Apr-23 12:00N 70°40' E 023°41'0 0.0
2018-Apr-23 11:29N 70°40' E 023°41'0 0.0
2018-Apr-23 11:00N 70°40' E 023°41'0 0.0
2018-Apr-23 10:29N 70°40' E 023°41'0 0.0
2018-Apr-23 10:00N 70°40' E 023°41'0 0.0
2018-Apr-23 09:29N 70°40' E 023°41'0 0.0
2018-Apr-23 09:00N 70°40' E 023°41'0 0.0
2018-Apr-23 08:29N 70°40' E 023°41'0 0.7
2018-Apr-23 07:59N 70°40' E 023°40'0 0.0
2018-Apr-23 07:30N 70°40' E 023°40'3 3.6
2018-Apr-23 06:48N 70°42' E 023°35'3 9.1
2018-Apr-23 06:30N 70°40' E 023°41'0 0.0
2018-Apr-23 06:00N 70°40' E 023°41'0 0.0
2018-Apr-23 05:29N 70°40' E 023°41'0 0.0
2018-Apr-23 04:59N 70°40' E 023°41'3 5.2
2018-Apr-23 04:30N 70°39' E 023°34'3 3.3
2018-Apr-23 03:32N 70°42' E 023°34'120.9
2018-Apr-23 03:30N 70°41' E 023°35'0 0.8
2018-Apr-23 02:57N 70°41' E 023°35'1 1.9
2018-Apr-23 02:30N 70°40' E 023°37'1 2.4
2018-Apr-23 02:00N 70°40' E 023°41'0 0.0
2018-Apr-23 01:30N 70°40' E 023°41'0 0.0
2018-Apr-23 01:00N 70°40' E 023°41'0 0.0
2018-Apr-23 00:30N 70°40' E 023°41'0 0.0
2018-Apr-23 00:00N 70°40' E 023°41'0 0.0
2018-Apr-22 23:30N 70°40' E 023°41'0 0.0
2018-Apr-22 23:00N 70°40' E 023°41'0 0.0
2018-Apr-22 22:30N 70°40' E 023°41'0 0.0
2018-Apr-22 22:00N 70°40' E 023°41'0 0.0
2018-Apr-22 21:30N 70°40' E 023°41'0 0.0
2018-Apr-22 21:00N 70°40' E 023°41'0 0.0
2018-Apr-22 20:30N 70°40' E 023°41'0 0.0
2018-Apr-22 20:00N 70°40' E 023°41'0 0.0
2018-Apr-22 19:30N 70°40' E 023°41'0 0.0
2018-Apr-22 18:58N 70°40' E 023°41'0 0.0
2018-Apr-22 18:30N 70°40' E 023°41'0 0.0
2018-Apr-22 18:00N 70°40' E 023°41'0 0.0
2018-Apr-22 17:30N 70°40' E 023°41'0 0.0
2018-Apr-22 17:00N 70°40' E 023°41'0 0.0
2018-Apr-22 16:30N 70°40' E 023°41'0 0.0
2018-Apr-22 15:59N 70°40' E 023°41'0 0.0
2018-Apr-22 15:30N 70°40' E 023°41'0 0.0
2018-Apr-22 15:00N 70°40' E 023°41'0 0.0
2018-Apr-22 14:30N 70°40' E 023°41'0 0.0
2018-Apr-22 13:59N 70°40' E 023°41'0 0.0
2018-Apr-22 13:29N 70°40' E 023°41'0 0.0
2018-Apr-22 13:00N 70°40' E 023°41'0 0.0
2018-Apr-22 12:29N 70°40' E 023°41'0 0.0
2018-Apr-22 12:00N 70°40' E 023°41'0 0.0
2018-Apr-22 11:30N 70°40' E 023°41'0 0.0
2018-Apr-22 11:00N 70°40' E 023°41'0 0.0
2018-Apr-22 10:29N 70°40' E 023°41'0 0.0
2018-Apr-22 09:59N 70°40' E 023°41'0 0.0
2018-Apr-22 09:30N 70°40' E 023°41'1 2.7
2018-Apr-22 09:01N 70°40' E 023°37'3 6.8
2018-Apr-22 08:30N 70°40' E 023°27'5 9.3
2018-Apr-22 08:00N 70°40' E 023°41'0 0.0
2018-Apr-22 07:30N 70°40' E 023°41'0 0.0
2018-Apr-22 07:00N 70°40' E 023°41'0 0.0
2018-Apr-22 06:30N 70°40' E 023°41'0 0.0
2018-Apr-22 05:59N 70°40' E 023°41'0 0.0
2018-Apr-22 05:28N 70°40' E 023°41'0 0.0
2018-Apr-22 04:59N 70°40' E 023°41'0 0.0
2018-Apr-22 04:30N 70°40' E 023°41'0 0.0
2018-Apr-22 04:00N 70°40' E 023°41'0 0.0
2018-Apr-22 03:29N 70°40' E 023°41'0 0.0
2018-Apr-22 03:00N 70°40' E 023°41'0 0.0
2018-Apr-22 02:30N 70°40' E 023°41'0 0.0
2018-Apr-22 02:00N 70°40' E 023°41'0 0.0
2018-Apr-22 01:30N 70°40' E 023°41'0 0.0
2018-Apr-22 01:00N 70°40' E 023°41'0 0.0
2018-Apr-22 00:30N 70°40' E 023°41'0 0.0
2018-Apr-22 00:00N 70°40' E 023°41'0 0.0
2018-Apr-21 23:30N 70°40' E 023°41'0 0.0
2018-Apr-21 23:00N 70°40' E 023°41'0 0.0
2018-Apr-21 22:30N 70°40' E 023°41'0 0.0
2018-Apr-21 22:00N 70°40' E 023°41'0 0.0
2018-Apr-21 21:30N 70°40' E 023°41'0 0.0
2018-Apr-21 21:00N 70°40' E 023°41'0 0.0
2018-Apr-21 20:30N 70°40' E 023°41'0 0.0
2018-Apr-21 20:00N 70°40' E 023°41'0 0.0
2018-Apr-21 19:30N 70°40' E 023°41'0 0.0
2018-Apr-21 18:57N 70°40' E 023°41'0 0.0
2018-Apr-21 18:30N 70°40' E 023°41'0 0.0
2018-Apr-21 18:00N 70°40' E 023°41'0 0.0
2018-Apr-21 17:30N 70°40' E 023°41'0 0.0
2018-Apr-21 17:00N 70°40' E 023°41'0 0.0
2018-Apr-21 16:30N 70°40' E 023°41'0 0.0
2018-Apr-21 16:00N 70°40' E 023°41'0 0.0
2018-Apr-21 15:30N 70°40' E 023°41'0 0.0
2018-Apr-21 15:00N 70°40' E 023°41'0 0.0
2018-Apr-21 14:30N 70°40' E 023°41'0 0.0
2018-Apr-21 14:00N 70°40' E 023°41'0 0.0
2018-Apr-21 13:30N 70°40' E 023°41'0 0.0
2018-Apr-21 13:00N 70°40' E 023°41'0 0.0
2018-Apr-21 12:30N 70°40' E 023°41'0 0.0
2018-Apr-21 12:00N 70°40' E 023°41'0 0.0
2018-Apr-21 11:30N 70°40' E 023°41'0 0.0
2018-Apr-21 11:00N 70°40' E 023°41'0 0.0
2018-Apr-21 10:30N 70°40' E 023°41'0 0.0
2018-Apr-21 10:00N 70°40' E 023°41'0 0.0
2018-Apr-21 09:30N 70°40' E 023°41'0 0.0
2018-Apr-21 09:00N 70°40' E 023°41'0 0.0
2018-Apr-21 08:30N 70°40' E 023°41'0 0.0
2018-Apr-21 08:00N 70°40' E 023°41'0 0.0
2018-Apr-21 07:30N 70°40' E 023°41'3 5.5
2018-Apr-21 06:58N 70°42' E 023°34'2 4.0
2018-Apr-21 06:30N 70°40' E 023°37'1 2.7
2018-Apr-21 06:00N 70°40' E 023°41'0 0.0
2018-Apr-21 05:30N 70°40' E 023°41'0 0.0
2018-Apr-21 05:00N 70°40' E 023°41'0 0.0
2018-Apr-21 04:30N 70°40' E 023°41'0 0.0
2018-Apr-21 04:00N 70°40' E 023°41'0 0.0
2018-Apr-21 03:30N 70°40' E 023°41'0 0.0
2018-Apr-21 03:00N 70°40' E 023°41'0 0.0
2018-Apr-21 02:30N 70°40' E 023°41'0 0.0
2018-Apr-21 02:00N 70°40' E 023°41'0 0.0
2018-Apr-21 01:30N 70°40' E 023°41'0 0.0
2018-Apr-21 01:00N 70°40' E 023°41'0 0.0
2018-Apr-21 00:30N 70°40' E 023°41'0 0.0
2018-Apr-21 00:00N 70°40' E 023°41'0 0.0
2018-Apr-20 23:30N 70°40' E 023°41'0 0.0
2018-Apr-20 23:00N 70°40' E 023°41'0 0.0
2018-Apr-20 22:30N 70°40' E 023°41'0 0.0
2018-Apr-20 22:00N 70°40' E 023°41'0 0.0
2018-Apr-20 21:30N 70°40' E 023°41'0 0.0
2018-Apr-20 21:00N 70°40' E 023°41'0 0.0
2018-Apr-20 20:30N 70°40' E 023°41'0 0.0
2018-Apr-20 20:00N 70°40' E 023°41'0 0.0
2018-Apr-20 19:30N 70°40' E 023°41'0 0.0
2018-Apr-20 19:00N 70°40' E 023°41'0 0.0
2018-Apr-20 18:30N 70°40' E 023°41'0 0.0
2018-Apr-20 17:59N 70°40' E 023°41'0 0.0
2018-Apr-20 17:29N 70°40' E 023°41'0 0.0
2018-Apr-20 17:00N 70°40' E 023°41'0 0.0
2018-Apr-20 16:30N 70°40' E 023°41'0 0.0
2018-Apr-20 16:00N 70°40' E 023°41'0 0.0
2018-Apr-20 15:30N 70°40' E 023°41'0 0.0
2018-Apr-20 14:59N 70°40' E 023°41'0 0.0
2018-Apr-20 14:30N 70°40' E 023°41'0 0.0
2018-Apr-20 14:00N 70°40' E 023°41'0 0.0
2018-Apr-20 13:30N 70°40' E 023°41'0 0.0
2018-Apr-20 13:00N 70°40' E 023°41'0 0.0
2018-Apr-20 12:29N 70°40' E 023°41'0 0.0
2018-Apr-20 11:58N 70°40' E 023°41'0 0.0
2018-Apr-20 11:30N 70°40' E 023°41'2 4.3
2018-Apr-20 10:59N 70°39' E 023°35'2 4.6
2018-Apr-20 10:30N 70°40' E 023°41'0 0.0
2018-Apr-20 09:59N 70°40' E 023°41'0 0.0
2018-Apr-20 09:30N 70°40' E 023°41'0 0.0
2018-Apr-20 09:00N 70°40' E 023°41'0 0.0
2018-Apr-20 08:30N 70°40' E 023°41'2 3.8
2018-Apr-20 08:00N 70°39' E 023°36'2 3.9
2018-Apr-20 07:30N 70°40' E 023°41'0 0.1
2018-Apr-20 07:00N 70°40' E 023°41'0 0.0
2018-Apr-20 06:30N 70°40' E 023°41'4 5.3
2018-Apr-20 05:48N 70°43' E 023°34'413.0
2018-Apr-20 05:31N 70°40' E 023°41'0 0.0
2018-Apr-20 05:00N 70°40' E 023°41'0 0.0
2018-Apr-20 04:31N 70°40' E 023°41'0 0.0
2018-Apr-20 04:00N 70°40' E 023°41'0 0.0
2018-Apr-20 03:31N 70°40' E 023°41'0 0.0
2018-Apr-20 03:01N 70°40' E 023°41'0 0.0
2018-Apr-20 02:30N 70°40' E 023°41'0 0.0
2018-Apr-20 02:00N 70°40' E 023°41'0 0.0
2018-Apr-20 01:31N 70°40' E 023°41'0 0.0
2018-Apr-20 01:01N 70°40' E 023°41'0 0.0
2018-Apr-20 00:31N 70°40' E 023°41'0 0.0
2018-Apr-20 00:01N 70°40' E 023°41'0 0.0
2018-Apr-19 23:31N 70°40' E 023°41'0 0.0
2018-Apr-19 23:00N 70°40' E 023°41'0 0.0
2018-Apr-19 22:31N 70°40' E 023°41'0 0.0
2018-Apr-19 22:01N 70°40' E 023°41'0 0.0
2018-Apr-19 21:30N 70°40' E 023°41'0 0.0
2018-Apr-19 21:00N 70°40' E 023°41'0 0.0
2018-Apr-19 20:30N 70°40' E 023°41'0 0.0
2018-Apr-19 20:00N 70°40' E 023°41'0 0.0
2018-Apr-19 19:30N 70°40' E 023°41'0 0.0
2018-Apr-19 19:01N 70°40' E 023°41'0 0.0
2018-Apr-19 18:30N 70°40' E 023°41'0 0.0
2018-Apr-19 17:55N 70°40' E 023°41'0 0.0
2018-Apr-19 17:30N 70°40' E 023°41'0 0.0
2018-Apr-19 17:01N 70°40' E 023°41'0 0.0
2018-Apr-19 16:31N 70°40' E 023°41'0 0.0
2018-Apr-19 16:00N 70°40' E 023°41'0 0.0
2018-Apr-19 15:31N 70°40' E 023°41'0 0.0
2018-Apr-19 15:01N 70°40' E 023°41'0 0.0
2018-Apr-19 14:29N 70°40' E 023°41'0 0.0
2018-Apr-19 13:57N 70°40' E 023°41'0 0.0
2018-Apr-19 13:28N 70°40' E 023°41'0 0.0
2018-Apr-19 13:01N 70°40' E 023°41'0 0.0
2018-Apr-19 12:30N 70°40' E 023°41'0 0.0
2018-Apr-19 12:00N 70°40' E 023°41'0 0.0
2018-Apr-19 11:31N 70°40' E 023°41'0 0.0
2018-Apr-19 10:58N 70°40' E 023°41'0 0.0
2018-Apr-19 10:30N 70°40' E 023°41'0 0.0
2018-Apr-19 09:59N 70°40' E 023°41'0 0.0
2018-Apr-19 09:24N 70°40' E 023°41'0 0.0
2018-Apr-19 09:00N 70°40' E 023°41'0 0.0
2018-Apr-19 08:31N 70°40' E 023°41'0 0.0
2018-Apr-19 08:00N 70°40' E 023°41'0 0.0
2018-Apr-19 07:31N 70°40' E 023°41'0 0.0
2018-Apr-19 07:00N 70°40' E 023°41'0 0.0
2018-Apr-19 06:30N 70°40' E 023°41'0 0.0
2018-Apr-19 06:00N 70°40' E 023°41'0 0.0
2018-Apr-19 05:29N 70°40' E 023°41'0 0.0
2018-Apr-19 05:00N 70°40' E 023°41'0 0.0
2018-Apr-19 04:31N 70°40' E 023°41'0 0.0
2018-Apr-19 04:01N 70°40' E 023°41'0 0.0
2018-Apr-19 03:30N 70°40' E 023°41'0 0.0
2018-Apr-19 03:00N 70°40' E 023°41'0 0.0
2018-Apr-19 02:30N 70°40' E 023°41'0 0.0
2018-Apr-19 02:01N 70°40' E 023°41'0 0.0
2018-Apr-19 01:30N 70°40' E 023°41'0 0.0
2018-Apr-19 01:01N 70°40' E 023°41'0 0.0
2018-Apr-19 00:31N 70°40' E 023°41'0 0.0
2018-Apr-19 00:01N 70°40' E 023°41'0 0.0
2018-Apr-18 23:30N 70°40' E 023°41'0 0.0
2018-Apr-18 23:00N 70°40' E 023°41'0 0.0
2018-Apr-18 22:31N 70°40' E 023°41'0 0.0
2018-Apr-18 22:01N 70°40' E 023°41'0 0.0
2018-Apr-18 21:31N 70°40' E 023°41'0 0.0
2018-Apr-18 21:00N 70°40' E 023°41'0 0.0
2018-Apr-18 20:31N 70°40' E 023°41'0 0.0
2018-Apr-18 20:01N 70°40' E 023°41'0 0.0
2018-Apr-18 19:30N 70°40' E 023°41'0 0.0
2018-Apr-18 19:01N 70°40' E 023°41'0 0.0
2018-Apr-18 18:30N 70°40' E 023°41'0 0.0
2018-Apr-18 18:00N 70°40' E 023°41'0 0.0
2018-Apr-18 17:31N 70°40' E 023°41'0 0.0
2018-Apr-18 17:00N 70°40' E 023°41'0 0.0
2018-Apr-18 16:30N 70°40' E 023°41'0 0.0
2018-Apr-18 16:01N 70°40' E 023°41'0 0.0
2018-Apr-18 15:30N 70°40' E 023°41'0 0.0
2018-Apr-18 13:46N 70°40' E 023°41'0 0.0
2018-Apr-18 13:30N 70°40' E 023°41'0 0.0
2018-Apr-18 12:59N 70°40' E 023°41'0 0.0
2018-Apr-18 12:30N 70°40' E 023°41'0 0.0
2018-Apr-18 12:01N 70°40' E 023°41'0 0.0
2018-Apr-18 11:31N 70°40' E 023°41'0 0.0
2018-Apr-18 10:59N 70°40' E 023°41'0 0.0
2018-Apr-18 10:29N 70°40' E 023°41'0 0.0
2018-Apr-18 09:59N 70°40' E 023°41'0 0.0
2018-Apr-18 09:29N 70°40' E 023°41'0 0.0
2018-Apr-18 09:00N 70°40' E 023°41'0 0.0
2018-Apr-18 08:31N 70°40' E 023°41'0 0.0
2018-Apr-18 08:01N 70°40' E 023°41'0 0.0
2018-Apr-18 07:29N 70°40' E 023°41'0 0.0
2018-Apr-18 07:01N 70°40' E 023°41'0 0.0
2018-Apr-18 06:30N 70°40' E 023°41'0 0.0
2018-Apr-18 06:00N 70°40' E 023°41'0 0.0
2018-Apr-18 05:30N 70°40' E 023°41'0 0.0
2018-Apr-18 04:58N 70°40' E 023°41'0 0.0
2018-Apr-18 04:30N 70°40' E 023°41'0 0.0
2018-Apr-18 04:01N 70°40' E 023°41'0 0.0
2018-Apr-18 03:30N 70°40' E 023°41'0 0.0
2018-Apr-18 03:00N 70°40' E 023°41'0 0.0
2018-Apr-18 02:31N 70°40' E 023°41'0 0.0
2018-Apr-18 02:00N 70°40' E 023°41'0 0.0
2018-Apr-18 01:31N 70°40' E 023°41'0 0.0
2018-Apr-18 01:01N 70°40' E 023°41'0 0.0
2018-Apr-18 00:31N 70°40' E 023°41'0 0.0
2018-Apr-18 00:01N 70°40' E 023°41'0 0.0
2018-Apr-17 23:30N 70°40' E 023°41'0 0.0
2018-Apr-17 23:01N 70°40' E 023°41'0 0.0
2018-Apr-17 22:31N 70°40' E 023°41'0 0.0
2018-Apr-17 22:01N 70°40' E 023°41'0 0.0
2018-Apr-17 21:30N 70°40' E 023°41'0 0.0
2018-Apr-17 21:01N 70°40' E 023°41'0 0.0
2018-Apr-17 20:31N 70°40' E 023°41'0 0.0
2018-Apr-17 20:01N 70°40' E 023°41'0 0.0
2018-Apr-17 19:30N 70°40' E 023°41'0 0.0
2018-Apr-17 19:01N 70°40' E 023°41'0 0.0
2018-Apr-17 18:30N 70°40' E 023°41'0 0.0
2018-Apr-17 18:00N 70°40' E 023°41'0 0.0
2018-Apr-17 17:31N 70°40' E 023°41'0 0.0
2018-Apr-17 17:00N 70°40' E 023°41'0 0.0
2018-Apr-17 16:30N 70°40' E 023°41'0 0.0
2018-Apr-17 15:59N 70°40' E 023°41'0 0.0
2018-Apr-17 15:31N 70°40' E 023°41'0 0.0
2018-Apr-17 15:01N 70°40' E 023°41'0 0.0
2018-Apr-17 14:30N 70°40' E 023°41'0 0.0
2018-Apr-17 13:58N 70°40' E 023°41'0 0.0
2018-Apr-17 13:31N 70°40' E 023°41'0 0.0
2018-Apr-17 13:00N 70°40' E 023°41'0 0.0
2018-Apr-17 12:29N 70°40' E 023°41'  

Dump ship's entire track history